Terminal Aerodrome Forecast
Issued by NWS Mt. Holly, NJ

Home | Current Version | Previous Version | Text Only | Print | Product List | Glossary On
Versions: 1 2 3 4 5 6 7 8 9 10 11 12 13 14 15 16
000
FTUS41 KPHI 201100
TAFRDG
TAF
KRDG 201130Z 2012/2112 VRB03KT P6SM SCT025 OVC035
      TEMPO 2012/2016 BKN025
     FM201600 19008KT P6SM SCT035
     FM202300 VRB03KT P6SM SCT030
     FM210500 VRB02KT 4SM BR BKN025
     FM211000 VRB02KT 2SM BR BKN018=

USA.gov is the U.S. government's official web portal to all federal, state and local government web resources and services.